Orlik, Russia
Current Conditions -  °F | °C
As of 4:00 PM on Tuesday 27 Jan 2015 (Local Time) from UIII Reporting Station
Smoke Smoke  
Wind Chill: -15°   Ceiling: Unl
Heat Index: -2°   Visibility: 3mi
Dew Point: -9°   Wind: 7mph
Humidity: 71%   Direction: 290°WNW
Pressure: 30.39"   Gusts: NA
Location:  52.51°N, 99.83°E
Report Text: UIII 270800Z 29003MPS 5000 FU SCT200 M19/M23 Q1029 NOSIG RMKQFE726/0968 30820350
Loading
Personal Weather Stations






























Interactive Weather Map New forecast layout! Learn more

10-Day Weather Forecast

Advertisements
Track Severe Weather on mobile